createdAt,value
2023-04-16T00:01:27.679Z,29.00
2023-04-16T00:03:54.824Z,28.65
2023-04-16T00:06:22.736Z,29.58
2023-04-16T00:08:49.339Z,28.27
2023-04-16T00:11:16.048Z,27.70
2023-04-16T00:13:42.814Z,29.63
2023-04-16T00:16:09.446Z,31.25
2023-04-16T00:18:36.163Z,28.33
2023-04-16T00:21:02.769Z,28.60
2023-04-16T00:23:29.396Z,28.27
2023-04-16T00:25:59.914Z,28.13
2023-04-16T00:28:27.681Z,28.20
2023-04-16T00:30:54.923Z,30.00
2023-04-16T00:33:21.637Z,29.33
2023-04-16T00:35:48.793Z,29.17
2023-04-16T00:38:15.487Z,29.63
2023-04-16T00:40:42.133Z,26.90
2023-04-16T00:43:08.781Z,28.65
2023-04-16T00:45:35.496Z,29.02
2023-04-16T00:48:02.198Z,27.92
2023-04-16T00:50:29.648Z,27.52
2023-04-16T00:52:56.860Z,27.90
2023-04-16T00:55:23.464Z,28.98
2023-04-16T00:57:49.998Z,28.48
2023-04-16T01:00:16.892Z,29.40
2023-04-16T01:02:43.613Z,27.77
2023-04-16T01:05:10.322Z,26.83
2023-04-16T01:07:36.910Z,26.85
2023-04-16T01:10:04.186Z,25.75
2023-04-16T01:12:30.754Z,26.67
2023-04-16T01:14:57.340Z,25.55
2023-04-16T01:17:23.981Z,27.00
2023-04-16T01:19:50.753Z,26.30
2023-04-16T01:22:17.347Z,26.90
2023-04-16T01:24:43.962Z,26.88
2023-04-16T01:27:10.827Z,26.58
2023-04-16T01:29:37.438Z,25.45
2023-04-16T01:32:04.030Z,25.02
2023-04-16T01:34:30.632Z,22.60
2023-04-16T01:36:57.216Z,23.20
2023-04-16T01:39:23.776Z,23.90
2023-04-16T01:41:50.422Z,24.55
2023-04-16T01:44:16.993Z,22.73
2023-04-16T01:46:44.135Z,22.95
2023-04-16T01:49:11.233Z,23.77
2023-04-16T01:51:38.034Z,25.00
2023-04-16T01:54:04.794Z,24.77
2023-04-16T01:56:31.347Z,23.25
2023-04-16T01:58:58.071Z,24.45
2023-04-16T02:01:24.893Z,27.25
2023-04-16T02:03:52.031Z,25.88
2023-04-16T02:06:18.873Z,28.08
2023-04-16T02:08:45.425Z,26.60
2023-04-16T02:11:11.976Z,26.77
2023-04-16T02:13:38.572Z,25.63
2023-04-16T02:16:05.566Z,27.30
2023-04-16T02:18:32.370Z,25.90
2023-04-16T02:21:00.194Z,26.77
2023-04-16T02:23:26.831Z,27.20
2023-04-16T02:25:53.437Z,25.73
2023-04-16T02:28:20.110Z,26.85
2023-04-16T02:30:46.749Z,24.80
2023-04-16T02:33:13.449Z,25.25
2023-04-16T02:35:40.712Z,24.73
2023-04-16T02:38:07.845Z,24.15
2023-04-16T02:40:34.456Z,26.65
2023-04-16T02:43:01.168Z,26.27
2023-04-16T02:45:27.947Z,26.88
2023-04-16T02:47:54.594Z,27.88
2023-04-16T02:50:21.345Z,30.08
2023-04-16T02:52:48.583Z,29.98
2023-04-16T02:55:15.377Z,29.98
2023-04-16T02:57:42.701Z,30.45
2023-04-16T03:00:10.038Z,28.55
2023-04-16T03:02:36.806Z,28.90
2023-04-16T03:05:04.037Z,28.13
2023-04-16T03:07:30.750Z,27.48
2023-04-16T03:09:57.306Z,27.33
2023-04-16T03:12:23.899Z,29.13
2023-04-16T03:14:52.543Z,29.27
2023-04-16T03:17:19.256Z,30.13
2023-04-16T03:19:46.206Z,30.85
2023-04-16T03:22:12.928Z,30.83
2023-04-16T03:24:39.535Z,28.90
2023-04-16T03:27:06.112Z,29.92
2023-04-16T03:29:32.672Z,29.08
2023-04-16T03:31:59.239Z,28.63
2023-04-16T03:34:25.946Z,29.67
2023-04-16T03:36:52.556Z,29.75
2023-04-16T03:39:19.141Z,30.33
2023-04-16T03:41:45.690Z,29.00
2023-04-16T03:44:12.272Z,28.40
2023-04-16T03:46:38.846Z,28.98
2023-04-16T03:49:05.711Z,30.25
2023-04-16T03:51:32.356Z,29.35
2023-04-16T03:53:58.912Z,30.15
2023-04-16T03:56:25.640Z,26.55
2023-04-16T03:58:52.225Z,28.77
2023-04-16T04:01:18.947Z,30.75
2023-04-16T04:03:45.751Z,30.95
2023-04-16T04:06:12.600Z,30.40
2023-04-16T04:08:39.214Z,30.23
2023-04-16T04:11:05.779Z,31.92
2023-04-16T04:13:32.369Z,30.23
2023-04-16T04:15:58.991Z,29.80
2023-04-16T04:18:25.713Z,29.35
2023-04-16T04:20:52.654Z,29.15
2023-04-16T04:23:19.295Z,29.95
2023-04-16T04:25:46.078Z,29.83
2023-04-16T04:28:12.748Z,29.10
2023-04-16T04:30:39.325Z,30.02
2023-04-16T04:33:06.348Z,29.58
2023-04-16T04:35:33.606Z,28.38
2023-04-16T04:38:01.876Z,28.77
2023-04-16T04:40:29.175Z,29.83
2023-04-16T04:42:55.809Z,29.77
2023-04-16T04:45:25.480Z,31.73
2023-04-16T04:47:55.376Z,28.85
2023-04-16T04:50:22.438Z,30.45
2023-04-16T04:52:49.004Z,29.55
2023-04-16T04:55:16.160Z,30.35
2023-04-16T04:57:42.791Z,29.95
2023-04-16T05:00:10.059Z,30.17
2023-04-16T05:02:36.661Z,27.10
2023-04-16T05:05:04.063Z,30.08
2023-04-16T05:07:30.856Z,29.38
2023-04-16T05:09:57.446Z,27.73
2023-04-16T05:12:24.202Z,29.52
2023-04-16T05:14:50.884Z,28.35
2023-04-16T05:17:17.664Z,26.85
2023-04-16T05:19:44.218Z,27.75
2023-04-16T05:22:10.768Z,26.05
2023-04-16T05:24:37.328Z,28.33
2023-04-16T05:27:04.089Z,28.05
2023-04-16T05:29:30.656Z,26.77
2023-04-16T05:31:57.252Z,26.88
2023-04-16T05:34:23.813Z,27.90
2023-04-16T05:36:50.385Z,26.88
2023-04-16T05:39:17.200Z,27.88
2023-04-16T05:41:43.733Z,27.75
2023-04-16T05:44:10.289Z,25.90
2023-04-16T05:46:37.078Z,26.70
2023-04-16T05:49:04.005Z,26.08
2023-04-16T05:51:30.564Z,26.33
2023-04-16T05:53:57.142Z,25.77
2023-04-16T05:56:25.802Z,27.33
2023-04-16T05:58:52.397Z,25.88
2023-04-16T06:01:18.932Z,26.23
2023-04-16T06:03:45.694Z,25.40
2023-04-16T06:06:12.423Z,25.48
2023-04-16T06:08:38.998Z,24.15
2023-04-16T06:11:05.972Z,26.35
2023-04-16T06:13:32.508Z,25.88
2023-04-16T06:15:59.096Z,26.77
2023-04-16T06:18:25.688Z,24.58
2023-04-16T06:20:52.616Z,25.58
2023-04-16T06:23:19.187Z,24.98
2023-04-16T06:25:45.801Z,24.60
2023-04-16T06:28:12.390Z,25.52
2023-04-16T06:30:39.350Z,26.48
2023-04-16T06:33:05.976Z,25.02
2023-04-16T06:35:32.611Z,26.25
2023-04-16T06:37:59.212Z,24.75
2023-04-16T06:40:26.949Z,23.67
2023-04-16T06:42:53.959Z,24.80
2023-04-16T06:45:20.536Z,24.50
2023-04-16T06:47:48.151Z,23.25
2023-04-16T06:50:14.927Z,24.27
2023-04-16T06:52:41.570Z,21.40
2023-04-16T06:55:09.821Z,22.40
2023-04-16T06:57:37.656Z,22.50
2023-04-16T07:00:08.051Z,23.58
2023-04-16T07:02:35.225Z,22.35
2023-04-16T07:05:02.042Z,21.85
2023-04-16T07:07:28.623Z,22.08
2023-04-16T07:09:55.196Z,22.08
2023-04-16T07:12:22.744Z,22.10
2023-04-16T07:14:49.674Z,22.50
2023-04-16T07:17:16.270Z,22.85
2023-04-16T07:19:42.802Z,23.40
2023-04-16T07:22:09.398Z,23.05
2023-04-16T07:24:36.630Z,21.90
2023-04-16T07:27:03.220Z,23.35
2023-04-16T07:29:29.994Z,22.33
2023-04-16T07:31:57.490Z,23.27
2023-04-16T07:34:24.135Z,21.83
2023-04-16T07:36:51.738Z,22.85
2023-04-16T07:39:18.302Z,21.17
2023-04-16T07:41:44.923Z,21.55
2023-04-16T07:44:11.495Z,22.40
2023-04-16T07:46:46.421Z,21.25
2023-04-16T07:49:14.397Z,21.30
2023-04-16T07:51:41.106Z,21.95
2023-04-16T07:54:07.715Z,21.52
2023-04-16T07:56:34.310Z,20.80
2023-04-16T07:59:07.972Z,21.15
2023-04-16T08:01:41.460Z,21.88
2023-04-16T08:04:08.231Z,21.02
2023-04-16T08:06:34.906Z,21.42
2023-04-16T08:09:01.474Z,21.25
2023-04-16T08:11:28.402Z,20.63
2023-04-16T08:13:55.034Z,22.33
2023-04-16T08:16:21.682Z,20.58
2023-04-16T08:18:48.413Z,21.15
2023-04-16T08:21:14.992Z,20.08
2023-04-16T08:23:41.633Z,20.17
2023-04-16T08:26:08.209Z,20.33
2023-04-16T08:28:34.977Z,20.63
2023-04-16T08:31:01.657Z,20.70
2023-04-16T08:33:28.568Z,20.17
2023-04-16T08:35:55.165Z,20.00
2023-04-16T08:38:21.726Z,19.05
2023-04-16T08:40:48.803Z,19.88
2023-04-16T08:43:16.344Z,19.98
2023-04-16T08:45:43.928Z,19.33
2023-04-16T08:48:12.076Z,20.47
2023-04-16T08:50:38.876Z,19.65
2023-04-16T08:53:06.728Z,18.63
2023-04-16T08:55:38.512Z,19.17
2023-04-16T08:58:14.682Z,19.58
2023-04-16T09:00:41.835Z,19.00
2023-04-16T09:03:09.831Z,17.90
2023-04-16T09:05:36.708Z,19.08
2023-04-16T09:08:05.609Z,17.58
2023-04-16T09:10:32.507Z,18.05
2023-04-16T09:12:59.085Z,18.40
2023-04-16T09:15:26.020Z,18.60
2023-04-16T09:17:53.161Z,18.75
2023-04-16T09:20:20.823Z,18.75
2023-04-16T09:22:47.571Z,18.37
2023-04-16T09:25:14.453Z,19.08
2023-04-16T09:27:41.085Z,17.92
2023-04-16T09:30:24.205Z,18.85
2023-04-16T09:32:52.481Z,18.75
2023-04-16T09:35:19.944Z,19.10
2023-04-16T09:37:58.845Z,17.90
2023-04-16T09:40:27.392Z,17.20
2023-04-16T09:45:23.411Z,16.42
2023-04-16T09:47:50.170Z,17.30
2023-04-16T09:50:18.945Z,17.08
2023-04-16T09:52:48.692Z,17.40
2023-04-16T09:55:15.462Z,18.55
2023-04-16T09:57:42.030Z,16.38
2023-04-16T10:00:10.277Z,16.98
2023-04-16T10:02:41.739Z,16.88
2023-04-16T10:05:09.256Z,19.10
2023-04-16T10:07:37.071Z,18.65
2023-04-16T10:10:04.507Z,18.02
2023-04-16T10:12:32.724Z,20.05
2023-04-16T10:14:59.407Z,20.02
2023-04-16T10:17:27.366Z,19.63
2023-04-16T10:19:54.747Z,19.73
2023-04-16T10:22:21.409Z,18.83
2023-04-16T10:24:49.104Z,18.25
2023-04-16T10:27:17.267Z,18.77
2023-04-16T10:29:44.572Z,18.05
2023-04-16T10:32:11.319Z,18.33
2023-04-16T10:34:37.973Z,18.65
2023-04-16T10:37:04.711Z,21.42
2023-04-16T10:39:32.988Z,18.25
2023-04-16T10:42:12.470Z,19.27
2023-04-16T10:44:43.485Z,17.73
2023-04-16T10:47:12.775Z,18.15
2023-04-16T10:49:40.321Z,18.95
2023-04-16T10:52:17.159Z,19.20
2023-04-16T10:54:43.869Z,18.38
2023-04-16T10:57:16.154Z,18.10
2023-04-16T10:59:43.820Z,19.55
2023-04-16T11:02:15.305Z,18.42
2023-04-16T11:04:49.325Z,19.30
2023-04-16T11:07:20.659Z,18.23
2023-04-16T11:09:54.580Z,18.58
2023-04-16T11:12:27.261Z,18.70
2023-04-16T11:14:55.493Z,18.35
2023-04-16T11:17:22.508Z,17.30
2023-04-16T11:19:49.308Z,18.00
2023-04-16T11:22:17.402Z,16.80
2023-04-16T11:24:45.707Z,19.67
2023-04-16T11:27:16.646Z,20.67
2023-04-16T11:29:45.068Z,17.30
2023-04-16T11:32:21.380Z,17.98
2023-04-16T11:34:48.047Z,16.25
2023-04-16T11:37:14.661Z,18.40
2023-04-16T11:39:51.509Z,16.45
2023-04-16T11:42:22.928Z,14.93
2023-04-16T11:44:56.754Z,15.50
2023-04-16T11:47:24.587Z,17.42
2023-04-16T11:49:51.598Z,15.52
2023-04-16T11:52:35.341Z,14.90
2023-04-16T11:55:02.753Z,14.32
2023-04-16T12:00:02.229Z,14.85
2023-04-16T12:02:42.948Z,14.93
2023-04-16T12:05:32.718Z,14.75
2023-04-16T12:08:04.576Z,13.95
2023-04-16T12:10:36.596Z,14.98
2023-04-16T12:13:18.728Z,14.85
2023-04-16T12:15:53.291Z,13.88
2023-04-16T12:18:22.493Z,14.80
2023-04-16T12:20:51.096Z,15.23
2023-04-16T12:23:29.180Z,14.10
2023-04-16T12:25:59.654Z,14.18
2023-04-16T12:28:34.914Z,13.90
2023-04-16T12:31:02.602Z,15.60
2023-04-16T12:33:29.785Z,13.85
2023-04-16T12:35:56.521Z,14.90
2023-04-16T12:38:24.609Z,15.93
2023-04-16T12:40:51.899Z,14.02
2023-04-16T12:43:19.872Z,15.88
2023-04-16T12:45:46.582Z,13.93
2023-04-16T12:48:13.266Z,13.35
2023-04-16T12:50:40.215Z,13.20
2023-04-16T12:53:06.844Z,14.85
2023-04-16T12:55:33.508Z,14.95
2023-04-16T12:58:00.066Z,18.23
2023-04-16T13:00:26.705Z,15.68
2023-04-16T13:02:53.395Z,12.88
2023-04-16T13:05:20.124Z,12.98
2023-04-16T13:07:46.785Z,14.57
2023-04-16T13:10:13.816Z,12.35
2023-04-16T13:12:40.657Z,13.88
2023-04-16T13:15:07.862Z,12.02
2023-04-16T13:17:34.491Z,14.30
2023-04-16T13:20:01.127Z,14.57
2023-04-16T13:22:27.804Z,13.88
2023-04-16T13:24:54.434Z,12.07
2023-04-16T13:27:20.984Z,13.65
2023-04-16T13:29:47.526Z,13.52
2023-04-16T13:32:14.836Z,13.23
2023-04-16T13:34:41.601Z,14.45
2023-04-16T13:37:08.254Z,14.68
2023-04-16T13:39:34.877Z,13.20
2023-04-16T13:42:01.906Z,12.35
2023-04-16T13:44:28.533Z,13.48
2023-04-16T13:46:56.177Z,14.00
2023-04-16T13:49:23.484Z,15.65
2023-04-16T13:51:50.262Z,14.35
2023-04-16T13:54:16.842Z,14.63
2023-04-16T13:56:43.961Z,12.90
2023-04-16T13:59:11.020Z,13.60
2023-04-16T14:01:37.949Z,12.10
2023-04-16T14:04:06.831Z,12.32
2023-04-16T14:06:34.442Z,13.23
2023-04-16T14:09:01.310Z,12.38
2023-04-16T14:11:28.011Z,14.10
2023-04-16T14:13:54.827Z,13.77
2023-04-16T14:16:21.583Z,12.80
2023-04-16T14:18:48.255Z,12.57
2023-04-16T14:21:14.945Z,12.20
2023-04-16T14:23:41.553Z,13.57
2023-04-16T14:26:08.486Z,13.23
2023-04-16T14:28:35.741Z,12.23
2023-04-16T14:31:02.363Z,12.75
2023-04-16T14:33:29.083Z,12.80
2023-04-16T14:35:55.790Z,12.43
2023-04-16T14:38:22.403Z,12.75
2023-04-16T14:40:49.082Z,13.10
2023-04-16T14:43:15.724Z,12.35
2023-04-16T14:45:42.336Z,12.18
2023-04-16T14:48:09.010Z,12.75
2023-04-16T14:50:39.087Z,12.57
2023-04-16T14:53:05.978Z,13.13
2023-04-16T14:55:32.718Z,13.20
2023-04-16T14:57:59.926Z,10.82
2023-04-16T15:00:27.550Z,11.00
2023-04-16T15:02:57.792Z,10.97
2023-04-16T15:05:24.572Z,11.63
2023-04-16T15:07:51.267Z,11.40
2023-04-16T15:10:17.933Z,11.48
2023-04-16T15:12:44.582Z,12.80
2023-04-16T15:15:11.454Z,11.27
2023-04-16T15:17:38.100Z,11.38
2023-04-16T15:20:08.187Z,11.23
2023-04-16T15:22:34.906Z,12.15
2023-04-16T15:25:01.509Z,11.75
2023-04-16T15:27:28.118Z,13.20
2023-04-16T15:29:54.817Z,12.43
2023-04-16T15:32:21.716Z,10.95
2023-04-16T15:34:48.339Z,12.10
2023-04-16T15:37:16.118Z,11.68
2023-04-16T15:39:43.263Z,12.52
2023-04-16T15:42:11.193Z,11.73
2023-04-16T15:44:37.836Z,11.32
2023-04-16T15:47:06.306Z,13.63
2023-04-16T15:51:59.616Z,10.52
2023-04-16T15:54:26.325Z,10.55
2023-04-16T15:56:52.876Z,13.43
2023-04-16T15:59:19.462Z,12.98
2023-04-16T16:01:46.108Z,12.07
2023-04-16T16:04:12.777Z,11.25
2023-04-16T16:06:39.393Z,12.32
2023-04-16T16:09:06.288Z,11.48
2023-04-16T16:11:32.947Z,11.88
2023-04-16T16:14:02.823Z,10.80
2023-04-16T16:16:29.430Z,10.38
2023-04-16T16:18:56.538Z,11.60
2023-04-16T16:21:23.126Z,11.60
2023-04-16T16:23:49.698Z,11.05
2023-04-16T16:26:16.256Z,10.98
2023-04-16T16:28:44.699Z,11.23
2023-04-16T16:31:12.292Z,11.63
2023-04-16T16:33:40.482Z,11.70
2023-04-16T16:36:10.646Z,12.02
2023-04-16T16:38:37.634Z,11.85
2023-04-16T16:41:04.206Z,11.15
2023-04-16T16:43:31.060Z,14.40
2023-04-16T16:45:57.730Z,11.73
2023-04-16T16:48:24.360Z,14.07
2023-04-16T16:50:50.926Z,11.75
2023-04-16T16:53:17.566Z,15.27
2023-04-16T16:55:44.160Z,12.63
2023-04-16T16:58:11.256Z,12.95
2023-04-16T17:00:38.053Z,12.95
2023-04-16T17:03:04.959Z,11.95
2023-04-16T17:05:31.776Z,12.40
2023-04-16T17:07:58.717Z,12.73
2023-04-16T17:10:25.366Z,11.55
2023-04-16T17:12:51.993Z,11.57
2023-04-16T17:15:21.146Z,12.40
2023-04-16T17:17:48.596Z,12.65
2023-04-16T17:20:15.746Z,12.00
2023-04-16T17:22:42.808Z,12.55
2023-04-16T17:25:09.750Z,14.98
2023-04-16T17:27:36.488Z,13.05
2023-04-16T17:30:05.029Z,11.90
2023-04-16T17:35:01.910Z,13.10
2023-04-16T17:37:28.653Z,12.20
2023-04-16T17:39:55.503Z,13.32
2023-04-16T17:42:22.156Z,16.77
2023-04-16T17:44:48.718Z,14.43
2023-04-16T17:47:15.330Z,14.77
2023-04-16T17:49:41.970Z,13.48
2023-04-16T17:52:08.564Z,23.58
2023-04-16T17:54:35.282Z,19.02
2023-04-16T17:57:02.185Z,16.95
2023-04-16T17:59:29.041Z,16.27
2023-04-16T18:01:56.629Z,19.45
2023-04-16T18:04:23.656Z,16.75
2023-04-16T18:06:50.531Z,20.73
2023-04-16T18:09:17.840Z,19.27
2023-04-16T18:11:44.439Z,20.73
2023-04-16T18:14:13.838Z,40.42
2023-04-16T18:16:41.840Z,21.20
2023-04-16T18:19:08.631Z,16.85
2023-04-16T18:21:35.753Z,18.42
2023-04-16T18:24:03.534Z,19.10
2023-04-16T18:26:30.260Z,15.63
2023-04-16T18:28:57.064Z,16.27
2023-04-16T18:31:23.802Z,16.00
2023-04-16T18:33:57.307Z,17.23
2023-04-16T18:36:26.085Z,20.08
2023-04-16T18:39:01.601Z,17.00
2023-04-16T18:41:28.726Z,18.50
2023-04-16T18:43:55.384Z,19.30
2023-04-16T18:46:22.013Z,18.50
2023-04-16T18:48:48.628Z,18.08
2023-04-16T18:51:16.543Z,17.63
2023-04-16T18:53:45.453Z,18.27
2023-04-16T18:56:12.344Z,19.13
2023-04-16T18:58:39.000Z,19.92
2023-04-16T19:01:10.927Z,18.05
2023-04-16T19:03:38.045Z,20.40
2023-04-16T19:06:04.975Z,18.83
2023-04-16T19:08:31.764Z,19.20
2023-04-16T19:10:58.421Z,20.42
2023-04-16T19:13:25.009Z,21.88
2023-04-16T19:15:51.615Z,19.92
2023-04-16T19:18:18.222Z,20.02
2023-04-16T19:20:44.840Z,18.73
2023-04-16T19:23:11.577Z,19.92
2023-04-16T19:25:39.511Z,18.48
2023-04-16T19:28:06.102Z,19.20
2023-04-16T19:30:32.749Z,19.35
2023-04-16T19:32:59.363Z,18.90
2023-04-16T19:35:25.956Z,18.27
2023-04-16T19:37:52.742Z,18.60
2023-04-16T19:40:19.402Z,18.58
2023-04-16T19:42:45.989Z,18.10
2023-04-16T19:45:12.664Z,17.60
2023-04-16T19:47:39.246Z,16.52
2023-04-16T19:50:06.506Z,18.55
2023-04-16T19:52:38.678Z,17.45
2023-04-16T19:55:06.623Z,16.23
2023-04-16T19:57:33.269Z,16.08
2023-04-16T19:59:59.917Z,17.13
2023-04-16T20:02:26.577Z,17.13
2023-04-16T20:04:53.346Z,17.25
2023-04-16T20:07:20.579Z,17.50
2023-04-16T20:09:47.256Z,17.60
2023-04-16T20:12:14.430Z,16.60
2023-04-16T20:14:41.966Z,15.63
2023-04-16T20:17:10.246Z,15.90
2023-04-16T20:19:40.174Z,16.92
2023-04-16T20:22:06.760Z,16.73
2023-04-16T20:24:33.388Z,16.38
2023-04-16T20:26:59.973Z,17.77
2023-04-16T20:29:27.066Z,18.45
2023-04-16T20:31:53.681Z,17.40
2023-04-16T20:34:20.291Z,18.40
2023-04-16T20:36:46.852Z,17.10
2023-04-16T20:39:13.628Z,18.10
2023-04-16T20:41:43.764Z,16.25
2023-04-16T20:44:18.043Z,18.83
2023-04-16T20:46:49.593Z,17.55
2023-04-16T20:49:17.738Z,15.43
2023-04-16T20:51:44.416Z,16.27
2023-04-16T20:54:11.085Z,15.95
2023-04-16T20:56:37.635Z,15.35
2023-04-16T20:59:04.324Z,16.48
2023-04-16T21:01:30.978Z,15.20
2023-04-16T21:03:57.690Z,15.05
2023-04-16T21:06:24.415Z,16.15
2023-04-16T21:08:51.102Z,13.75
2023-04-16T21:11:17.692Z,14.63
2023-04-16T21:13:44.397Z,13.35
2023-04-16T21:16:12.521Z,13.80
2023-04-16T21:18:39.279Z,13.95
2023-04-16T21:21:06.095Z,13.93
2023-04-16T21:23:32.688Z,13.98
2023-04-16T21:25:59.280Z,13.52
2023-04-16T21:28:25.933Z,14.73
2023-04-16T21:30:52.798Z,15.35
2023-04-16T21:33:19.430Z,14.77
2023-04-16T21:35:52.111Z,13.02
2023-04-16T21:38:19.370Z,14.32
2023-04-16T21:40:50.441Z,13.70
2023-04-16T21:43:17.941Z,15.25
2023-04-16T21:45:44.584Z,12.88
2023-04-16T21:48:11.295Z,12.90
2023-04-16T21:50:38.353Z,15.68
2023-04-16T21:53:06.512Z,12.73
2023-04-16T21:55:34.747Z,13.82
2023-04-16T21:58:04.301Z,14.75
2023-04-16T22:00:30.850Z,13.95
2023-04-16T22:03:00.267Z,14.10
2023-04-16T22:05:27.113Z,14.05
2023-04-16T22:07:53.653Z,14.43
2023-04-16T22:10:20.378Z,14.43
2023-04-16T22:12:46.963Z,14.18
2023-04-16T22:15:13.881Z,14.10
2023-04-16T22:17:40.966Z,16.38
2023-04-16T22:20:14.688Z,15.80
2023-04-16T22:22:42.143Z,18.10
2023-04-16T22:25:09.446Z,16.55
2023-04-16T22:27:36.585Z,15.90
2023-04-16T22:30:04.121Z,17.45
2023-04-16T22:32:31.030Z,16.52
2023-04-16T22:34:57.702Z,15.75
2023-04-16T22:37:24.288Z,15.43
2023-04-16T22:39:50.876Z,15.85
2023-04-16T22:42:17.434Z,16.50
2023-04-16T22:44:43.994Z,17.77
2023-04-16T22:47:10.572Z,15.05
2023-04-16T22:49:37.188Z,17.48
2023-04-16T22:52:03.892Z,16.92
2023-04-16T22:54:31.279Z,16.83
2023-04-16T22:56:58.049Z,18.75
2023-04-16T22:59:25.047Z,17.92
2023-04-16T23:01:52.115Z,17.58
2023-04-16T23:04:18.859Z,18.40
2023-04-16T23:06:46.310Z,19.67
2023-04-16T23:09:13.168Z,18.85
2023-04-16T23:11:40.009Z,16.40
2023-04-16T23:14:07.673Z,19.10
2023-04-16T23:16:34.259Z,18.20
2023-04-16T23:19:00.983Z,17.88
2023-04-16T23:21:27.527Z,18.73
2023-04-16T23:23:54.404Z,17.48
2023-04-16T23:26:20.963Z,17.73
2023-04-16T23:28:47.551Z,17.63
2023-04-16T23:31:14.208Z,18.85
2023-04-16T23:33:40.801Z,17.73
2023-04-16T23:36:07.973Z,17.20
2023-04-16T23:38:34.535Z,17.95
2023-04-16T23:41:01.190Z,17.60
2023-04-16T23:43:27.797Z,18.73
2023-04-16T23:45:54.411Z,17.73
2023-04-16T23:48:21.049Z,17.17
2023-04-16T23:50:47.649Z,18.00
2023-04-16T23:53:14.322Z,17.45
2023-04-16T23:55:40.892Z,18.17
2023-04-16T23:58:07.501Z,18.92
